Time;durP1;ratioP1;P1;durP2;ratioP2;P2;SDS_P1;SDS_P2;PMS_P1;PMS_P2;Temp;Humidity;BMP_temperature;BMP_pressure;BME280_temperature;BME280_humidity;BME280_pressure;Samples;Min_cycle;Max_cycle;Signal;HPM_P1;HPM_P2
2023/05/29 00:00:46;;;;;;;;;;;;;;;22.91;37.39;96623.84;4206881;28;5790;-78
2023/05/29 00:02:50;;;;;;;;;;;;;;;22.85;37.47;96624.94;4199774;28;5816;-78
2023/05/29 00:04:53;;;;;;;;;;;;;;;22.86;37.11;96623.03;4198384;28;5864;-78
2023/05/29 00:06:56;;;;;;;;;;;;;;;22.89;37.03;96619.81;4195560;28;6636;-78
2023/05/29 00:09:00;;;;;;;;;;;;;;;22.94;37.22;96617.09;4195643;28;5687;-78
2023/05/29 00:11:04;;;;;;;;;;;;;;;22.98;37.19;96628.91;4196628;28;5693;-77
2023/05/29 00:13:07;;;;;;;;;;;;;;;23.01;36.87;96628.41;4194364;28;5670;-78
2023/05/29 00:15:12;;;;;;;;;;;;;;;23.05;37.28;96624.06;4200100;28;5695;-77
2023/05/29 00:17:15;;;;;;;;;;;;;;;23.06;36.76;96620.28;4206249;28;5725;-77
2023/05/29 00:19:19;;;;;;;;;;;;;;;23.08;36.79;96633.47;4200796;28;5693;-78
2023/05/29 00:21:22;;;;;;;;;;;;;;;23.07;37.02;96626.47;4205843;28;5711;-77
2023/05/29 00:23:25;;;;;;;;;;;;;;;23.05;37.30;96623.25;4190878;28;5722;-77
2023/05/29 00:25:28;;;;;;;;;;;;;;;23.03;37.15;96625.41;4201622;28;5664;-78
2023/05/29 00:27:33;;;;;;;;;;;;;;;23.01;37.09;96623.00;4200058;28;5773;-77
2023/05/29 00:29:37;;;;;;;;;;;;;;;22.95;37.36;96626.78;4201971;28;5709;-77
2023/05/29 00:31:40;;;;;;;;;;;;;;;22.92;37.59;96616.56;4187350;28;5928;-77
2023/05/29 00:33:43;;;;;;;;;;;;;;;22.88;37.38;96615.50;4196941;28;7749;-77
2023/05/29 00:35:46;;;;;;;;;;;;;;;22.84;37.27;96617.13;4202478;28;5929;-77
2023/05/29 00:37:49;;;;;;;;;;;;;;;22.83;37.31;96616.31;4197960;28;5761;-77
2023/05/29 00:39:52;;;;;;;;;;;;;;;22.81;37.75;96612.28;4198068;28;5768;-77
2023/05/29 00:41:54;;;;;;;;;;;;;;;22.80;37.49;96611.47;4197746;28;5678;-77
2023/05/29 00:43:59;;;;;;;;;;;;;;;22.80;37.39;96613.34;4199961;28;5706;-76
2023/05/29 00:46:01;;;;;;;;;;;;;;;22.80;37.67;96616.84;4199538;28;5809;-77
2023/05/29 00:48:06;;;;;;;;;;;;;;;22.79;37.80;96614.44;4201468;28;5702;-77
2023/05/29 00:50:13;;;;;;;;;;;;;;;22.77;38.03;96611.22;4203117;28;5819;-78
2023/05/29 00:52:16;;;;;;;;;;;;;;;22.77;37.96;96622.00;4195595;28;5171;-77
2023/05/29 00:54:24;;;;;;;;;;;;;;;22.77;37.52;96616.59;4198842;28;5710;-78
2023/05/29 00:56:27;;;;;;;;;;;;;;;22.75;37.57;96610.66;4192685;28;6031;-77
2023/05/29 00:58:31;;;;;;;;;;;;;;;22.75;37.89;96619.53;4200298;28;7735;-77
2023/05/29 01:00:38;;;;;;;;;;;;;;;22.76;38.04;96617.66;4200045;28;5698;-78
2023/05/29 01:02:44;;;;;;;;;;;;;;;22.77;37.66;96627.38;4201714;28;5697;-77
2023/05/29 01:04:48;;;;;;;;;;;;;;;22.76;37.82;96623.03;4201036;28;5761;-78
2023/05/29 01:06:51;;;;;;;;;;;;;;;22.76;37.86;96625.75;4203325;28;6822;-78
2023/05/29 01:08:56;;;;;;;;;;;;;;;22.76;37.83;96620.34;4202052;28;5681;-77
2023/05/29 01:11:06;;;;;;;;;;;;;;;22.75;37.68;96626.81;4197215;28;5809;-78
2023/05/29 01:13:12;;;;;;;;;;;;;;;22.74;38.12;96617.94;4196424;28;5664;-78
2023/05/29 01:15:22;;;;;;;;;;;;;;;22.75;37.89;96624.13;4191068;28;5797;-78
2023/05/29 01:17:34;;;;;;;;;;;;;;;22.73;38.02;96627.09;4202525;28;6585;-78
2023/05/29 01:20:00;;;;;;;;;;;;;;;22.69;38.08;96628.75;4207543;28;5682;-78
2023/05/29 01:22:13;;;;;;;;;;;;;;;22.65;38.32;96631.19;4206139;28;5721;-78
2023/05/29 01:24:27;;;;;;;;;;;;;;;22.62;38.27;96626.31;4201895;28;5729;-78
2023/05/29 01:26:55;;;;;;;;;;;;;;;22.60;38.65;96633.88;4198628;28;5733;-78
2023/05/29 01:29:02;;;;;;;;;;;;;;;22.61;38.42;96630.09;4203669;28;5716;-78
2023/05/29 01:31:08;;;;;;;;;;;;;;;22.59;38.24;96632.28;4211357;28;5662;-77
2023/05/29 01:33:11;;;;;;;;;;;;;;;22.57;38.86;96634.44;4206958;28;5675;-77
2023/05/29 01:35:14;;;;;;;;;;;;;;;22.56;38.92;96632.03;4211987;28;5755;-77
2023/05/29 01:37:16;;;;;;;;;;;;;;;22.53;38.58;96636.03;4201163;28;5081;-76
2023/05/29 01:39:21;;;;;;;;;;;;;;;22.51;39.04;96635.50;4202060;28;5665;-77
2023/05/29 01:41:25;;;;;;;;;;;;;;;22.50;38.70;96639.28;4200900;28;6721;-77
2023/05/29 01:43:30;;;;;;;;;;;;;;;22.49;39.12;96632.28;4199205;28;5730;-77
2023/05/29 01:45:33;;;;;;;;;;;;;;;22.47;38.99;96637.16;4214737;28;5860;-77
2023/05/29 01:47:37;;;;;;;;;;;;;;;22.46;39.15;96640.13;4200641;28;5693;-77
2023/05/29 01:49:44;;;;;;;;;;;;;;;22.43;39.22;96632.59;4199891;28;5690;-77
2023/05/29 01:51:47;;;;;;;;;;;;;;;22.40;38.86;96635.81;4197889;28;6493;-77
2023/05/29 01:53:50;;;;;;;;;;;;;;;22.37;39.03;96635.28;4200146;28;5697;-77
2023/05/29 01:55:54;;;;;;;;;;;;;;;22.35;39.46;96636.63;4199331;28;5690;-78
2023/05/29 01:57:57;;;;;;;;;;;;;;;22.35;39.49;96636.63;4198773;28;5829;-77
2023/05/29 02:00:08;;;;;;;;;;;;;;;22.32;39.18;96637.19;4197211;28;5780;-78
2023/05/29 02:02:12;;;;;;;;;;;;;;;22.32;39.10;96631.81;4195744;28;5911;-77
2023/05/29 02:04:15;;;;;;;;;;;;;;;22.29;39.63;96625.03;4198924;28;5761;-77
2023/05/29 02:06:18;;;;;;;;;;;;;;;22.29;39.24;96633.13;4197735;28;5939;-77
2023/05/29 02:08:21;;;;;;;;;;;;;;;22.28;39.47;96626.13;4201859;28;5785;-77
2023/05/29 02:10:24;;;;;;;;;;;;;;;22.28;39.40;96619.94;4202963;28;5712;-77
2023/05/29 02:12:27;;;;;;;;;;;;;;;22.29;39.43;96629.63;4203824;28;5884;-77
2023/05/29 02:14:31;;;;;;;;;;;;;;;22.29;39.54;96632.31;4203149;28;5777;-78
2023/05/29 02:16:36;;;;;;;;;;;;;;;22.30;39.62;96629.34;4199090;28;5734;-77
2023/05/29 02:18:41;;;;;;;;;;;;;;;22.29;39.69;96622.34;4202546;28;5690;-77
2023/05/29 02:20:43;;;;;;;;;;;;;;;22.27;39.86;96618.31;4203089;28;5814;-77
2023/05/29 02:22:47;;;;;;;;;;;;;;;22.25;39.48;96625.88;4203639;28;5694;-78
2023/05/29 02:24:50;;;;;;;;;;;;;;;22.23;39.59;96625.34;4203454;28;5694;-77
2023/05/29 02:26:53;;;;;;;;;;;;;;;22.23;39.94;96619.97;4203683;28;5689;-77
2023/05/29 02:28:55;;;;;;;;;;;;;;;22.22;39.63;96621.03;4195259;28;6680;-77
2023/05/29 02:30:58;;;;;;;;;;;;;;;22.21;39.77;96625.63;4195126;28;5099;-78
2023/05/29 02:33:02;;;;;;;;;;;;;;;22.21;39.81;96616.72;4193400;28;5795;-77
2023/05/29 02:35:07;;;;;;;;;;;;;;;22.19;39.81;96618.88;4192367;28;5916;-78
2023/05/29 02:37:10;;;;;;;;;;;;;;;22.18;39.89;96614.56;4193876;28;5774;-77
2023/05/29 02:39:12;;;;;;;;;;;;;;;22.17;39.98;96615.66;4194005;28;5840;-77
2023/05/29 02:41:15;;;;;;;;;;;;;;;22.16;39.84;96622.91;4192177;28;5767;-77
2023/05/29 02:43:18;;;;;;;;;;;;;;;22.15;39.98;96626.69;4202658;28;5693;-77
2023/05/29 02:45:21;;;;;;;;;;;;;;;22.13;40.00;96619.97;4198681;28;5759;-78
2023/05/29 02:47:24;;;;;;;;;;;;;;;22.12;40.08;96621.84;4197596;28;5694;-77
2023/05/29 02:49:28;;;;;;;;;;;;;;;22.10;40.38;96620.50;4190624;28;5706;-77
2023/05/29 02:51:32;;;;;;;;;;;;;;;22.07;40.41;96621.84;4195729;28;5993;-78
2023/05/29 02:53:35;;;;;;;;;;;;;;;22.06;40.38;96615.66;4195403;28;5809;-78
2023/05/29 02:55:38;;;;;;;;;;;;;;;22.07;40.53;96619.94;4199901;28;5127;-78
2023/05/29 02:57:40;;;;;;;;;;;;;;;22.06;40.13;96622.91;4187089;28;5778;-77
2023/05/29 02:59:44;;;;;;;;;;;;;;;22.06;40.53;96621.03;4190796;28;5718;-78
2023/05/29 03:01:48;;;;;;;;;;;;;;;22.04;40.50;96612.41;4199295;28;5941;-78
2023/05/29 03:03:52;;;;;;;;;;;;;;;22.03;40.23;96612.66;4200321;28;5840;-78
2023/05/29 03:05:56;;;;;;;;;;;;;;;22.04;40.22;96617.78;4192523;28;5894;-78
2023/05/29 03:07:59;;;;;;;;;;;;;;;22.05;40.19;96621.28;4203175;28;5702;-77
2023/05/29 03:10:03;;;;;;;;;;;;;;;22.06;40.46;96612.16;4189569;28;5809;-78
2023/05/29 03:12:07;;;;;;;;;;;;;;;22.02;40.22;96609.16;4203509;28;5714;-78
2023/05/29 03:14:10;;;;;;;;;;;;;;;21.98;40.46;96612.69;4201103;28;5693;-77
2023/05/29 03:16:13;;;;;;;;;;;;;;;21.96;40.59;96615.63;4202933;28;5779;-77
2023/05/29 03:18:16;;;;;;;;;;;;;;;21.94;40.21;96612.41;4201184;28;5796;-78
2023/05/29 03:20:19;;;;;;;;;;;;;;;21.89;40.57;96617.78;4190695;28;5689;-78
2023/05/29 03:22:23;;;;;;;;;;;;;;;21.89;40.49;96609.72;4203882;28;5438;-78
2023/05/29 03:24:27;;;;;;;;;;;;;;;21.93;40.18;96613.47;4190612;28;5793;-78
2023/05/29 03:26:30;;;;;;;;;;;;;;;21.96;40.67;96609.44;4200852;28;5690;-78
2023/05/29 03:28:33;;;;;;;;;;;;;;;21.98;40.36;96604.63;4202417;28;5784;-78
2023/05/29 03:30:36;;;;;;;;;;;;;;;21.95;40.40;96610.50;4191483;28;5722;-78
2023/05/29 03:32:39;;;;;;;;;;;;;;;21.85;40.18;96614.00;4221986;28;5602;-77
2023/05/29 03:34:42;;;;;;;;;;;;;;;21.83;40.40;96608.09;4205748;28;5757;-77
2023/05/29 03:36:46;;;;;;;;;;;;;;;21.89;40.26;96612.41;4206703;28;5683;-77
2023/05/29 03:38:50;;;;;;;;;;;;;;;21.90;40.13;96613.22;4202001;28;5674;-77
2023/05/29 03:40:53;;;;;;;;;;;;;;;21.88;40.21;96616.19;4191240;28;5710;-78
2023/05/29 03:42:56;;;;;;;;;;;;;;;21.89;40.46;96623.19;4200205;28;5714;-78
2023/05/29 03:44:59;;;;;;;;;;;;;;;21.89;40.63;96623.19;4197298;28;5857;-78
2023/05/29 03:47:02;;;;;;;;;;;;;;;21.88;40.55;96615.38;4207990;28;5808;-78
2023/05/29 03:49:07;;;;;;;;;;;;;;;21.87;40.33;96614.56;4202843;28;5694;-78
2023/05/29 03:51:10;;;;;;;;;;;;;;;21.89;40.66;96622.38;4202347;28;5791;-78
2023/05/29 03:53:13;;;;;;;;;;;;;;;21.91;40.18;96617.53;4202226;28;5154;-78
2023/05/29 03:55:17;;;;;;;;;;;;;;;21.91;40.21;96622.91;4202418;28;5780;-78
2023/05/29 03:57:20;;;;;;;;;;;;;;;21.90;40.27;96626.66;4202125;28;5705;-78
2023/05/29 03:59:23;;;;;;;;;;;;;;;21.89;40.26;96623.19;4190421;28;5681;-78
2023/05/29 04:01:26;;;;;;;;;;;;;;;21.86;40.38;96629.09;4201407;28;6703;-78
2023/05/29 04:03:30;;;;;;;;;;;;;;;21.87;40.37;96627.22;4202103;28;6367;-78
2023/05/29 04:05:33;;;;;;;;;;;;;;;21.85;40.11;96629.34;4201847;28;5780;-78
2023/05/29 04:07:38;;;;;;;;;;;;;;;21.82;40.25;96619.94;4201914;28;5721;-78
2023/05/29 04:09:41;;;;;;;;;;;;;;;21.80;40.21;96625.59;4204818;28;5694;-78
2023/05/29 04:11:46;;;;;;;;;;;;;;;21.78;40.27;96630.44;4202434;28;5733;-78
2023/05/29 04:13:49;;;;;;;;;;;;;;;21.77;40.45;96626.13;4200780;28;5907;-78
2023/05/29 04:15:54;;;;;;;;;;;;;;;21.76;40.59;96635.28;4202706;28;5669;-78
2023/05/29 04:17:58;;;;;;;;;;;;;;;21.74;40.59;96640.09;4202724;28;5694;-78
2023/05/29 04:20:07;;;;;;;;;;;;;;;21.73;40.32;96641.19;4202905;28;5786;-78
2023/05/29 04:22:10;;;;;;;;;;;;;;;21.71;40.40;96647.91;4200466;28;5866;-78
2023/05/29 04:24:14;;;;;;;;;;;;;;;21.69;40.49;96644.69;4201845;28;6011;-78
2023/05/29 04:26:17;;;;;;;;;;;;;;;21.67;40.95;96646.84;4202080;28;5696;-78
2023/05/29 04:28:21;;;;;;;;;;;;;;;21.67;40.63;96641.47;4207001;28;5668;-78
2023/05/29 04:30:24;;;;;;;;;;;;;;;21.65;40.71;96652.50;4200556;28;5775;-78
2023/05/29 04:32:27;;;;;;;;;;;;;;;21.67;40.94;96652.22;4201192;28;5689;-78
2023/05/29 04:34:30;;;;;;;;;;;;;;;21.67;40.79;96660.28;4203809;28;5748;-78
2023/05/29 04:36:33;;;;;;;;;;;;;;;21.66;40.68;96658.69;4201668;28;5785;-78
2023/05/29 04:38:36;;;;;;;;;;;;;;;21.65;40.63;96651.69;4200972;28;5683;-77
2023/05/29 04:40:40;;;;;;;;;;;;;;;21.65;40.70;96657.06;4203991;28;6461;-78
2023/05/29 04:42:44;;;;;;;;;;;;;;;21.63;40.84;96661.88;4201737;28;7105;-78
2023/05/29 04:44:49;;;;;;;;;;;;;;;21.63;40.89;96664.56;4199591;28;5698;-78
2023/05/29 04:46:52;;;;;;;;;;;;;;;21.64;40.72;96669.72;4201638;28;5706;-78
2023/05/29 04:48:56;;;;;;;;;;;;;;;21.65;40.99;96670.50;4197292;28;5711;-78
2023/05/29 04:50:59;;;;;;;;;;;;;;;21.65;40.88;96675.88;4201139;28;5824;-79
2023/05/29 04:53:02;;;;;;;;;;;;;;;21.66;40.85;96672.13;4201564;28;5817;-76
2023/05/29 04:55:06;;;;;;;;;;;;;;;21.67;41.31;96674.53;4201334;28;5729;-78
2023/05/29 04:57:10;;;;;;;;;;;;;;;21.66;41.20;96683.69;4201516;28;5709;-78
2023/05/29 04:59:13;;;;;;;;;;;;;;;21.68;41.24;96678.03;4200550;28;5706;-78
2023/05/29 05:01:18;;;;;;;;;;;;;;;21.71;41.33;96681.00;4190147;28;5865;-77
2023/05/29 05:03:21;;;;;;;;;;;;;;;21.71;41.05;96680.19;4201245;28;5706;-77
2023/05/29 05:05:24;;;;;;;;;;;;;;;21.72;40.91;96681.81;4200280;28;5237;-77
2023/05/29 05:07:27;;;;;;;;;;;;;;;21.74;41.06;96680.47;4186663;28;5841;-77
2023/05/29 05:09:30;;;;;;;;;;;;;;;21.75;40.85;96689.38;4201033;28;5754;-77
2023/05/29 05:11:32;;;;;;;;;;;;;;;21.75;41.08;96682.09;4201193;28;5860;-77
2023/05/29 05:13:35;;;;;;;;;;;;;;;21.75;41.22;96692.88;4197021;28;5689;-77
2023/05/29 05:15:38;;;;;;;;;;;;;;;21.75;41.06;96689.38;4201009;28;5686;-77
2023/05/29 05:17:42;;;;;;;;;;;;;;;21.75;41.17;96687.47;4201158;28;5078;-77
2023/05/29 05:19:45;;;;;;;;;;;;;;;21.77;41.25;96687.22;4200241;28;5693;-77
2023/05/29 05:21:48;;;;;;;;;;;;;;;21.78;41.19;96684.25;4200289;28;5890;-77
2023/05/29 05:23:54;;;;;;;;;;;;;;;21.81;41.14;96682.91;4187748;28;5722;-77
2023/05/29 05:26:01;;;;;;;;;;;;;;;21.84;41.35;96676.97;4190710;28;5179;-77
2023/05/29 05:28:04;;;;;;;;;;;;;;;21.92;41.18;96686.41;4196335;28;5714;-77
2023/05/29 05:30:08;;;;;;;;;;;;;;;22.03;41.22;96688.03;4199916;28;5694;-78
2023/05/29 05:32:11;;;;;;;;;;;;;;;22.13;41.26;96684.56;4198341;28;5870;-77
2023/05/29 05:34:15;;;;;;;;;;;;;;;22.22;41.00;96685.66;4184020;28;5925;-77
2023/05/29 05:36:18;;;;;;;;;;;;;;;22.31;41.08;96686.72;4189120;28;5701;-77
2023/05/29 05:38:21;;;;;;;;;;;;;;;22.41;40.98;96684.00;4198836;28;5800;-77
2023/05/29 05:40:24;;;;;;;;;;;;;;;22.48;40.98;96684.56;4200301;28;5697;-77
2023/05/29 05:42:27;;;;;;;;;;;;;;;22.56;41.02;96681.31;4210936;28;5483;-77
2023/05/29 05:44:30;;;;;;;;;;;;;;;22.64;40.57;96680.75;4202146;28;5749;-77
2023/05/29 05:46:33;;;;;;;;;;;;;;;22.68;40.80;96678.31;4200654;28;5791;-77
2023/05/29 05:48:36;;;;;;;;;;;;;;;22.73;40.71;96690.97;4199621;28;5841;-77
2023/05/29 05:50:41;;;;;;;;;;;;;;;22.75;41.13;96688.81;4197562;28;7146;-77
2023/05/29 05:52:43;;;;;;;;;;;;;;;22.77;41.04;96689.38;4200615;28;5690;-77
2023/05/29 05:54:46;;;;;;;;;;;;;;;22.79;41.02;96690.69;4198455;28;5713;-78
2023/05/29 05:56:50;;;;;;;;;;;;;;;22.83;40.94;96685.56;4186730;28;5876;-77
2023/05/29 05:58:52;;;;;;;;;;;;;;;22.88;41.12;96688.28;4212917;28;5775;-78
2023/05/29 06:00:57;;;;;;;;;;;;;;;22.89;40.92;96690.72;4196007;28;5707;-77
2023/05/29 06:03:03;;;;;;;;;;;;;;;22.87;40.98;96692.03;4198843;28;6407;-77
2023/05/29 06:05:07;;;;;;;;;;;;;;;22.92;41.02;96686.66;4198806;28;5681;-77
2023/05/29 06:07:11;;;;;;;;;;;;;;;22.93;40.82;96696.34;4200584;28;5722;-76
2023/05/29 06:09:14;;;;;;;;;;;;;;;22.93;41.11;96691.75;4183108;28;6428;-75
2023/05/29 06:11:17;;;;;;;;;;;;;;;22.95;41.09;96694.19;4200496;28;5709;-76
2023/05/29 06:13:20;;;;;;;;;;;;;;;22.96;41.07;96690.41;4199175;28;5860;-77
2023/05/29 06:15:23;;;;;;;;;;;;;;;22.98;40.49;96693.63;4198278;28;5828;-77
2023/05/29 06:17:26;;;;;;;;;;;;;;;23.02;40.95;96689.31;4198203;28;5844;-76
2023/05/29 06:19:30;;;;;;;;;;;;;;;23.08;40.98;96696.28;4200246;28;5706;-76
2023/05/29 06:21:33;;;;;;;;;;;;;;;23.11;40.91;96708.44;4196203;28;5845;-77
2023/05/29 06:23:37;;;;;;;;;;;;;;;23.12;40.54;96693.88;4200472;28;5682;-76
2023/05/29 06:25:40;;;;;;;;;;;;;;;23.17;40.86;96701.94;4200579;28;5734;-76
2023/05/29 06:27:43;;;;;;;;;;;;;;;23.18;40.89;96698.94;4199354;28;6354;-76
2023/05/29 06:29:46;;;;;;;;;;;;;;;23.22;40.69;96705.44;4191879;28;5723;-76
2023/05/29 06:31:50;;;;;;;;;;;;;;;23.27;40.80;96701.09;4187419;28;5786;-76
2023/05/29 06:33:52;;;;;;;;;;;;;;;23.27;40.59;96703.78;4187667;28;5726;-77
2023/05/29 06:35:56;;;;;;;;;;;;;;;23.34;40.34;96710.50;4189159;28;5686;-77
2023/05/29 06:37:59;;;;;;;;;;;;;;;23.41;40.64;96712.88;4197935;28;5702;-76
2023/05/29 06:40:05;;;;;;;;;;;;;;;23.45;40.26;96713.97;4183702;28;5839;-77
2023/05/29 06:42:08;;;;;;;;;;;;;;;23.48;40.36;96708.00;4198755;28;5704;-77
2023/05/29 06:44:11;;;;;;;;;;;;;;;23.53;40.07;96711.47;4197935;28;5783;-76
2023/05/29 06:46:14;;;;;;;;;;;;;;;23.58;39.99;96717.94;4197605;28;5683;-78
2023/05/29 06:48:17;;;;;;;;;;;;;;;23.58;40.48;96713.38;4197889;28;5897;-76
2023/05/29 06:50:20;;;;;;;;;;;;;;;23.61;40.27;96712.81;4198958;28;5793;-76
2023/05/29 06:52:23;;;;;;;;;;;;;;;23.62;40.40;96719.81;4183303;28;5739;-77
2023/05/29 06:54:26;;;;;;;;;;;;;;;23.63;40.34;96720.63;4193693;28;5682;-76
2023/05/29 06:56:31;;;;;;;;;;;;;;;23.62;40.16;96719.81;4201121;28;5789;-77
2023/05/29 06:58:34;;;;;;;;;;;;;;;23.63;40.23;96717.94;4202992;28;5822;-77
2023/05/29 07:00:37;;;;;;;;;;;;;;;23.62;40.38;96713.63;4200928;28;5772;-77
2023/05/29 07:02:40;;;;;;;;;;;;;;;23.58;39.98;96718.78;4194636;28;5817;-76
2023/05/29 07:04:43;;;;;;;;;;;;;;;23.58;39.97;96718.78;4202524;28;5730;-76
2023/05/29 07:06:46;;;;;;;;;;;;;;;23.52;40.08;96714.44;4202427;28;5824;-76
2023/05/29 07:08:49;;;;;;;;;;;;;;;23.51;40.13;96716.34;4202309;28;6387;-76
2023/05/29 07:10:52;;;;;;;;;;;;;;;23.48;40.20;96713.41;4202873;28;5804;-77
2023/05/29 07:12:57;;;;;;;;;;;;;;;23.44;40.06;96715.03;4202972;28;5702;-76
2023/05/29 07:15:00;;;;;;;;;;;;;;;23.39;40.21;96709.66;4202921;28;5703;-77
2023/05/29 07:17:03;;;;;;;;;;;;;;;23.30;40.07;96705.91;4202944;28;7800;-76
2023/05/29 07:19:06;;;;;;;;;;;;;;;23.33;40.40;96711.59;4202568;28;5686;-77
2023/05/29 07:21:21;;;;;;;;;;;;;;;23.28;40.28;96713.47;4202337;28;5694;-77
2023/05/29 07:23:25;;;;;;;;;;;;;;;23.26;40.28;96713.75;4202445;28;5769;-76
2023/05/29 07:25:30;;;;;;;;;;;;;;;23.22;40.03;96712.72;4202417;28;5893;-75
2023/05/29 07:27:33;;;;;;;;;;;;;;;23.17;40.34;96710.81;4202652;28;5995;-77
2023/05/29 07:29:37;;;;;;;;;;;;;;;23.12;40.47;96715.44;4202288;28;5690;-77
2023/05/29 07:31:41;;;;;;;;;;;;;;;23.12;40.12;96718.94;4202690;28;5840;-77
2023/05/29 07:33:44;;;;;;;;;;;;;;;23.10;39.93;96718.38;4202583;28;5753;-76
2023/05/29 07:35:48;;;;;;;;;;;;;;;23.05;40.11;96715.72;4202448;28;5694;-76
2023/05/29 07:37:52;;;;;;;;;;;;;;;23.02;40.50;96721.66;4202455;28;5884;-77
2023/05/29 07:39:55;;;;;;;;;;;;;;;23.01;40.23;96721.94;4199629;28;5959;-77
2023/05/29 07:41:58;;;;;;;;;;;;;;;22.97;40.43;96718.97;4202201;28;5706;-77
2023/05/29 07:44:01;;;;;;;;;;;;;;;23.00;39.94;96718.44;4202260;28;5296;-77
2023/05/29 07:46:05;;;;;;;;;;;;;;;23.00;39.92;96706.84;4202368;28;5693;-77
2023/05/29 07:48:08;;;;;;;;;;;;;;;23.00;40.10;96713.06;4202588;28;6375;-77
2023/05/29 07:50:11;;;;;;;;;;;;;;;22.99;40.42;96711.44;4202079;28;5853;-77
2023/05/29 07:52:14;;;;;;;;;;;;;;;22.95;40.12;96711.16;4196521;28;5722;-77
2023/05/29 07:54:20;;;;;;;;;;;;;;;22.94;39.94;96714.94;4190330;28;5699;-75
2023/05/29 07:56:25;;;;;;;;;;;;;;;22.93;40.13;96715.22;4198693;28;5702;-77
2023/05/29 07:58:28;;;;;;;;;;;;;;;22.91;40.38;96715.50;4194956;28;5924;-77
2023/05/29 08:00:31;;;;;;;;;;;;;;;22.92;40.05;96713.59;4199847;28;5091;-76
2023/05/29 08:02:37;;;;;;;;;;;;;;;22.95;39.91;96711.16;4200032;28;6395;-76
2023/05/29 08:04:40;;;;;;;;;;;;;;;22.98;39.92;96720.56;4195427;28;5882;-79
2023/05/29 08:06:43;;;;;;;;;;;;;;;22.99;40.32;96721.38;4200455;28;5828;-77
2023/05/29 08:08:47;;;;;;;;;;;;;;;22.98;40.12;96712.50;4200134;28;5856;-77
2023/05/29 08:10:50;;;;;;;;;;;;;;;23.00;40.39;96721.13;4200371;28;5806;-77
2023/05/29 08:12:53;;;;;;;;;;;;;;;22.98;40.30;96717.88;4195576;28;5878;-78
2023/05/29 08:14:56;;;;;;;;;;;;;;;22.98;39.99;96723.28;4197854;28;5753;-77
2023/05/29 08:16:59;;;;;;;;;;;;;;;22.99;40.45;96721.38;4200398;28;5857;-77
2023/05/29 08:19:04;;;;;;;;;;;;;;;23.03;40.18;96714.38;4199342;28;6068;-76
2023/05/29 08:21:09;;;;;;;;;;;;;;;23.04;40.27;96711.41;4200183;28;5693;-78
2023/05/29 08:23:11;;;;;;;;;;;;;;;23.06;40.38;96713.81;4200579;28;5776;-77
2023/05/29 08:25:14;;;;;;;;;;;;;;;23.04;40.68;96705.22;4192057;28;5689;-77
2023/05/29 08:27:17;;;;;;;;;;;;;;;23.02;40.38;96716.28;4200283;28;5678;-77
2023/05/29 08:29:21;;;;;;;;;;;;;;;23.01;40.78;96703.88;4199460;28;5690;-77
2023/05/29 08:31:25;;;;;;;;;;;;;;;22.99;40.71;96705.22;4199973;28;5761;-78
2023/05/29 08:33:29;;;;;;;;;;;;;;;22.99;40.63;96699.81;4200510;28;5928;-77
2023/05/29 08:35:33;;;;;;;;;;;;;;;23.01;40.85;96700.38;4200237;28;5753;-78
2023/05/29 08:37:36;;;;;;;;;;;;;;;23.00;40.86;96696.88;4200048;28;5689;-78
2023/05/29 08:39:39;;;;;;;;;;;;;;;22.98;40.56;96696.31;4197992;28;5963;-77
2023/05/29 08:41:52;;;;;;;;;;;;;;;22.99;40.86;96702.50;4194746;28;6606;-77
2023/05/29 08:43:55;;;;;;;;;;;;;;;23.01;40.62;96706.56;4192108;28;5689;-77
2023/05/29 08:46:01;;;;;;;;;;;;;;;23.00;40.74;96710.34;4195996;28;5795;-76
2023/05/29 08:48:06;;;;;;;;;;;;;;;23.01;40.87;96709.28;4195063;28;5706;-76
2023/05/29 08:50:12;;;;;;;;;;;;;;;23.01;40.68;96703.88;4198175;28;5785;-76
2023/05/29 08:52:18;;;;;;;;;;;;;;;23.01;41.10;96708.47;4191532;28;5693;-77
2023/05/29 08:54:21;;;;;;;;;;;;;;;23.02;40.88;96720.84;4191823;28;5714;-76
2023/05/29 08:56:24;;;;;;;;;;;;;;;22.96;40.92;96711.97;4197263;28;6716;-76
2023/05/29 08:58:37;;;;;;;;;;;;;;;22.98;41.19;96709.78;4194170;28;5758;-76
2023/05/29 09:00:40;;;;;;;;;;;;;;;22.97;41.18;96712.78;4190738;28;5682;-77
2023/05/29 09:02:44;;;;;;;;;;;;;;;22.95;41.17;96703.06;4194304;28;5719;-76
2023/05/29 09:04:48;;;;;;;;;;;;;;;22.97;40.92;96707.38;4191647;28;5849;-76
2023/05/29 09:06:55;;;;;;;;;;;;;;;22.96;41.10;96701.19;4193220;28;5801;-68
2023/05/29 09:08:59;;;;;;;;;;;;;;;22.99;41.26;96703.34;4195234;28;6631;-66
2023/05/29 09:11:02;;;;;;;;;;;;;;;22.97;41.12;96697.41;4188839;28;5706;-66
2023/05/29 09:13:05;;;;;;;;;;;;;;;22.98;41.13;96701.72;4198041;28;5808;-67
2023/05/29 09:15:18;;;;;;;;;;;;;;;22.98;41.07;96699.00;4198263;28;5800;-66
2023/05/29 09:17:21;;;;;;;;;;;;;;;23.01;40.84;96703.88;4197172;28;5864;-66
2023/05/29 09:19:26;;;;;;;;;;;;;;;23.02;41.10;96693.91;4189790;28;5833;-66
2023/05/29 09:21:33;;;;;;;;;;;;;;;23.05;40.79;96694.16;4190839;28;6018;-65
2023/05/29 09:23:36;;;;;;;;;;;;;;;23.08;41.15;96703.56;4197528;28;5745;-66
2023/05/29 09:25:43;;;;;;;;;;;;;;;23.09;41.10;96706.00;4193119;28;5842;-66
2023/05/29 09:27:46;;;;;;;;;;;;;;;23.08;40.98;96698.97;4194714;28;5691;-65
2023/05/29 09:29:49;;;;;;;;;;;;;;;23.10;40.82;96696.81;4197706;28;5703;-66
2023/05/29 09:31:52;;;;;;;;;;;;;;;23.10;40.79;96702.22;4196996;28;5788;-66
2023/05/29 09:33:55;;;;;;;;;;;;;;;23.15;40.81;96704.09;4199260;28;5820;-66
2023/05/29 09:36:00;;;;;;;;;;;;;;;23.15;40.98;96701.41;4199134;28;5695;-66
2023/05/29 09:38:04;;;;;;;;;;;;;;;23.14;41.07;96708.69;4191408;28;6416;-67
2023/05/29 09:40:11;;;;;;;;;;;;;;;23.17;41.20;96707.31;4196419;28;5821;-66
2023/05/29 09:42:16;;;;;;;;;;;;;;;23.16;40.61;96711.91;4191030;28;5694;-66
2023/05/29 09:44:20;;;;;;;;;;;;;;;23.14;40.75;96707.88;4197164;28;6504;-67
2023/05/29 09:46:23;;;;;;;;;;;;;;;23.12;40.67;96710.84;4192881;28;5826;-67
2023/05/29 09:48:27;;;;;;;;;;;;;;;23.14;40.95;96703.28;4196500;28;5710;-68
2023/05/29 09:50:30;;;;;;;;;;;;;;;23.11;40.90;96703.84;4198622;28;5714;-68
2023/05/29 09:52:36;;;;;;;;;;;;;;;23.15;40.54;96704.91;4198810;28;5901;-67
2023/05/29 09:54:39;;;;;;;;;;;;;;;23.19;40.80;96705.16;4190846;28;5685;-66
2023/05/29 09:56:43;;;;;;;;;;;;;;;23.20;40.55;96707.56;4186866;28;5796;-65
2023/05/29 09:58:48;;;;;;;;;;;;;;;23.22;40.64;96697.34;4188920;28;5780;-67
2023/05/29 10:00:53;;;;;;;;;;;;;;;23.24;40.52;96700.56;4183493;28;5925;-66
2023/05/29 10:02:57;;;;;;;;;;;;;;;23.27;40.40;96701.09;4181179;28;5881;-66
2023/05/29 10:05:00;;;;;;;;;;;;;;;23.30;40.41;96695.13;4187772;28;5777;-66
2023/05/29 10:07:09;;;;;;;;;;;;;;;23.30;40.39;96695.94;4191389;28;5786;-66
2023/05/29 10:09:15;;;;;;;;;;;;;;;23.31;40.42;96683.25;4182187;28;5766;-66
2023/05/29 10:11:24;;;;;;;;;;;;;;;23.37;40.32;96684.84;4188807;28;5114;-66
2023/05/29 10:13:29;;;;;;;;;;;;;;;23.38;40.67;96687.28;4188146;28;5715;-67
2023/05/29 10:15:34;;;;;;;;;;;;;;;23.42;40.48;96691.03;4188129;28;6385;-76
2023/05/29 10:17:40;;;;;;;;;;;;;;;23.46;40.10;96683.19;4194326;28;5785;-69
2023/05/29 10:19:46;;;;;;;;;;;;;;;23.46;40.59;96688.59;4196492;28;8279;-64
2023/05/29 10:21:55;;;;;;;;;;;;;;;23.46;40.12;96686.69;4192049;28;5903;-72
2023/05/29 10:23:58;;;;;;;;;;;;;;;23.48;40.18;96689.94;4191165;28;5805;-72
2023/05/29 10:26:14;;;;;;;;;;;;;;;23.48;40.26;96681.84;4195367;28;5852;-73
2023/05/29 10:28:17;;;;;;;;;;;;;;;23.50;39.95;96676.16;4188707;28;5710;-71
2023/05/29 10:30:31;;;;;;;;;;;;;;;23.52;40.21;96676.69;4195148;28;5830;-67
2023/05/29 10:32:52;;;;;;;;;;;;;;;23.54;39.85;96669.91;4190126;28;5828;-67
2023/05/29 10:35:07;;;;;;;;;;;;;;;23.60;40.32;96672.63;4195458;28;5909;-66
2023/05/29 10:37:22;;;;;;;;;;;;;;;23.61;39.94;96668.84;4197708;28;5822;-66
2023/05/29 10:39:25;;;;;;;;;;;;;;;23.61;39.84;96664.25;4196789;28;5091;-67
2023/05/29 10:41:39;;;;;;;;;;;;;;;23.61;40.23;96666.94;4193943;28;5754;-69
2023/05/29 10:43:44;;;;;;;;;;;;;;;23.63;40.18;96669.34;4193041;28;5804;-68
2023/05/29 10:45:53;;;;;;;;;;;;;;;23.66;40.02;96675.00;4194852;28;5071;-67
2023/05/29 10:48:36;;;;;;;;;;;;;;;23.71;40.00;96669.59;4191444;28;5817;-67
2023/05/29 10:50:41;;;;;;;;;;;;;;;23.72;39.72;96668.50;4189063;28;5776;-68
2023/05/29 10:52:47;;;;;;;;;;;;;;;23.71;39.59;96668.78;4193092;28;6015;-68
2023/05/29 10:54:53;;;;;;;;;;;;;;;23.69;39.98;96665.56;4200809;28;7714;-68
2023/05/29 10:56:58;;;;;;;;;;;;;;;23.71;39.95;96669.59;4196402;28;5703;-68